sensor_id;sensor_type;location;lat;lon;timestamp;P1;durP1;ratioP1;P2;durP2;ratioP2
13872;SDS011;7006;51.494;11.964;2022-11-03T00:01:36;9.53;;;5.90;;
13872;SDS011;7006;51.494;11.964;2022-11-03T00:04:04;9.73;;;5.43;;
13872;SDS011;7006;51.494;11.964;2022-11-03T00:06:30;9.37;;;5.83;;
13872;SDS011;7006;51.494;11.964;2022-11-03T00:08:57;11.17;;;5.27;;
13872;SDS011;7006;51.494;11.964;2022-11-03T00:11:24;9.13;;;4.80;;
13872;SDS011;7006;51.494;11.964;2022-11-03T00:13:50;7.63;;;4.33;;
13872;SDS011;7006;51.494;11.964;2022-11-03T00:16:16;10.30;;;4.67;;
13872;SDS011;7006;51.494;11.964;2022-11-03T00:18:43;10.20;;;4.53;;
13872;SDS011;7006;51.494;11.964;2022-11-03T00:21:11;9.33;;;4.70;;
13872;SDS011;7006;51.494;11.964;2022-11-03T00:23:39;8.13;;;5.00;;
13872;SDS011;7006;51.494;11.964;2022-11-03T00:26:06;8.67;;;5.27;;
13872;SDS011;7006;51.494;11.964;2022-11-03T00:28:33;9.00;;;4.70;;
13872;SDS011;7006;51.494;11.964;2022-11-03T00:30:59;8.47;;;5.27;;
13872;SDS011;7006;51.494;11.964;2022-11-03T00:33:29;8.73;;;6.00;;
13872;SDS011;7006;51.494;11.964;2022-11-03T00:35:56;10.20;;;6.03;;
13872;SDS011;7006;51.494;11.964;2022-11-03T00:38:24;13.30;;;6.30;;
13872;SDS011;7006;51.494;11.964;2022-11-03T00:40:53;10.23;;;5.00;;
13872;SDS011;7006;51.494;11.964;2022-11-03T00:43:20;9.23;;;5.83;;
13872;SDS011;7006;51.494;11.964;2022-11-03T00:45:46;10.13;;;5.87;;
13872;SDS011;7006;51.494;11.964;2022-11-03T00:48:13;11.03;;;6.77;;
13872;SDS011;7006;51.494;11.964;2022-11-03T00:50:58;8.60;;;5.70;;
13872;SDS011;7006;51.494;11.964;2022-11-03T00:53:26;8.40;;;5.37;;
13872;SDS011;7006;51.494;11.964;2022-11-03T00:55:52;11.07;;;5.33;;
13872;SDS011;7006;51.494;11.964;2022-11-03T00:58:19;8.87;;;5.10;;
13872;SDS011;7006;51.494;11.964;2022-11-03T01:00:45;11.23;;;5.77;;
13872;SDS011;7006;51.494;11.964;2022-11-03T01:03:11;9.70;;;5.30;;
13872;SDS011;7006;51.494;11.964;2022-11-03T01:05:39;9.37;;;5.13;;
13872;SDS011;7006;51.494;11.964;2022-11-03T01:08:32;10.50;;;5.40;;
13872;SDS011;7006;51.494;11.964;2022-11-03T01:11:06;10.20;;;5.50;;
13872;SDS011;7006;51.494;11.964;2022-11-03T01:13:50;10.00;;;5.70;;
13872;SDS011;7006;51.494;11.964;2022-11-03T01:16:16;9.23;;;5.00;;
13872;SDS011;7006;51.494;11.964;2022-11-03T01:18:42;13.80;;;6.40;;
13872;SDS011;7006;51.494;11.964;2022-11-03T01:21:09;11.90;;;6.00;;
13872;SDS011;7006;51.494;11.964;2022-11-03T01:23:36;9.60;;;5.83;;
13872;SDS011;7006;51.494;11.964;2022-11-03T01:26:03;12.30;;;6.20;;
13872;SDS011;7006;51.494;11.964;2022-11-03T01:28:29;9.03;;;5.10;;
13872;SDS011;7006;51.494;11.964;2022-11-03T01:31:01;10.07;;;5.77;;
13872;SDS011;7006;51.494;11.964;2022-11-03T01:33:27;9.97;;;6.00;;
13872;SDS011;7006;51.494;11.964;2022-11-03T01:35:53;13.83;;;7.27;;
13872;SDS011;7006;51.494;11.964;2022-11-03T01:38:19;14.27;;;6.90;;
13872;SDS011;7006;51.494;11.964;2022-11-03T01:40:47;13.43;;;6.00;;
13872;SDS011;7006;51.494;11.964;2022-11-03T01:43:13;11.43;;;7.07;;
13872;SDS011;7006;51.494;11.964;2022-11-03T01:45:40;9.27;;;6.10;;
13872;SDS011;7006;51.494;11.964;2022-11-03T01:48:06;11.83;;;7.00;;
13872;SDS011;7006;51.494;11.964;2022-11-03T01:50:33;13.00;;;6.77;;
13872;SDS011;7006;51.494;11.964;2022-11-03T01:52:59;10.80;;;6.67;;
13872;SDS011;7006;51.494;11.964;2022-11-03T01:55:26;10.97;;;6.93;;
13872;SDS011;7006;51.494;11.964;2022-11-03T01:57:56;10.10;;;5.90;;
13872;SDS011;7006;51.494;11.964;2022-11-03T02:00:24;8.77;;;5.80;;
13872;SDS011;7006;51.494;11.964;2022-11-03T02:02:51;9.20;;;5.30;;
13872;SDS011;7006;51.494;11.964;2022-11-03T02:05:17;11.23;;;5.10;;
13872;SDS011;7006;51.494;11.964;2022-11-03T02:07:45;11.03;;;5.33;;
13872;SDS011;7006;51.494;11.964;2022-11-03T02:10:13;10.23;;;5.13;;
13872;SDS011;7006;51.494;11.964;2022-11-03T02:12:39;8.97;;;4.90;;
13872;SDS011;7006;51.494;11.964;2022-11-03T02:15:08;7.17;;;4.60;;
13872;SDS011;7006;51.494;11.964;2022-11-03T02:17:35;9.33;;;4.60;;
13872;SDS011;7006;51.494;11.964;2022-11-03T02:20:03;12.90;;;5.00;;
13872;SDS011;7006;51.494;11.964;2022-11-03T02:22:41;10.17;;;5.03;;
13872;SDS011;7006;51.494;11.964;2022-11-03T02:25:14;10.20;;;5.20;;
13872;SDS011;7006;51.494;11.964;2022-11-03T02:27:42;9.50;;;5.63;;
13872;SDS011;7006;51.494;11.964;2022-11-03T02:30:09;8.40;;;4.70;;
13872;SDS011;7006;51.494;11.964;2022-11-03T02:32:37;9.23;;;5.50;;
13872;SDS011;7006;51.494;11.964;2022-11-03T02:35:07;11.77;;;5.70;;
13872;SDS011;7006;51.494;11.964;2022-11-03T02:37:36;10.77;;;5.73;;
13872;SDS011;7006;51.494;11.964;2022-11-03T02:40:06;11.70;;;5.83;;
13872;SDS011;7006;51.494;11.964;2022-11-03T02:42:33;12.87;;;5.80;;
13872;SDS011;7006;51.494;11.964;2022-11-03T02:45:04;13.27;;;5.93;;
13872;SDS011;7006;51.494;11.964;2022-11-03T02:47:31;16.17;;;5.67;;
13872;SDS011;7006;51.494;11.964;2022-11-03T02:49:58;11.30;;;6.23;;
13872;SDS011;7006;51.494;11.964;2022-11-03T02:52:34;13.87;;;6.30;;
13872;SDS011;7006;51.494;11.964;2022-11-03T02:55:01;13.53;;;5.87;;
13872;SDS011;7006;51.494;11.964;2022-11-03T02:57:29;8.23;;;5.33;;
13872;SDS011;7006;51.494;11.964;2022-11-03T02:59:57;10.03;;;5.90;;
13872;SDS011;7006;51.494;11.964;2022-11-03T03:02:30;9.77;;;5.60;;
13872;SDS011;7006;51.494;11.964;2022-11-03T03:04:59;11.10;;;5.50;;
13872;SDS011;7006;51.494;11.964;2022-11-03T03:07:28;11.13;;;5.33;;
13872;SDS011;7006;51.494;11.964;2022-11-03T03:09:56;10.80;;;5.70;;
13872;SDS011;7006;51.494;11.964;2022-11-03T03:12:23;9.17;;;5.60;;
13872;SDS011;7006;51.494;11.964;2022-11-03T03:14:50;9.77;;;5.30;;
13872;SDS011;7006;51.494;11.964;2022-11-03T03:17:18;8.77;;;5.27;;
13872;SDS011;7006;51.494;11.964;2022-11-03T03:19:50;12.60;;;6.70;;
13872;SDS011;7006;51.494;11.964;2022-11-03T03:22:20;14.90;;;7.00;;
13872;SDS011;7006;51.494;11.964;2022-11-03T03:24:48;13.27;;;6.60;;
13872;SDS011;7006;51.494;11.964;2022-11-03T03:27:16;10.70;;;6.77;;
13872;SDS011;7006;51.494;11.964;2022-11-03T03:29:45;12.47;;;7.43;;
13872;SDS011;7006;51.494;11.964;2022-11-03T03:32:13;11.77;;;6.50;;
13872;SDS011;7006;51.494;11.964;2022-11-03T03:34:40;15.30;;;6.70;;
13872;SDS011;7006;51.494;11.964;2022-11-03T03:37:09;14.30;;;7.00;;
13872;SDS011;7006;51.494;11.964;2022-11-03T03:39:37;14.03;;;6.90;;
13872;SDS011;7006;51.494;11.964;2022-11-03T03:42:04;16.30;;;7.57;;
13872;SDS011;7006;51.494;11.964;2022-11-03T03:44:31;11.40;;;6.30;;
13872;SDS011;7006;51.494;11.964;2022-11-03T03:46:59;12.23;;;7.10;;
13872;SDS011;7006;51.494;11.964;2022-11-03T03:49:27;10.50;;;6.70;;
13872;SDS011;7006;51.494;11.964;2022-11-03T03:51:53;14.63;;;6.20;;
13872;SDS011;7006;51.494;11.964;2022-11-03T03:54:21;8.40;;;5.83;;
13872;SDS011;7006;51.494;11.964;2022-11-03T03:56:49;10.90;;;6.10;;
13872;SDS011;7006;51.494;11.964;2022-11-03T03:59:16;7.87;;;5.50;;
13872;SDS011;7006;51.494;11.964;2022-11-03T04:01:43;10.27;;;5.57;;
13872;SDS011;7006;51.494;11.964;2022-11-03T04:04:09;12.93;;;5.50;;
13872;SDS011;7006;51.494;11.964;2022-11-03T04:06:35;11.77;;;6.63;;
13872;SDS011;7006;51.494;11.964;2022-11-03T04:09:02;13.57;;;7.50;;
13872;SDS011;7006;51.494;11.964;2022-11-03T04:11:29;12.07;;;6.20;;
13872;SDS011;7006;51.494;11.964;2022-11-03T04:14:13;10.80;;;6.40;;
13872;SDS011;7006;51.494;11.964;2022-11-03T04:16:57;9.30;;;6.27;;
13872;SDS011;7006;51.494;11.964;2022-11-03T04:19:41;7.33;;;5.20;;
13872;SDS011;7006;51.494;11.964;2022-11-03T04:22:26;11.00;;;5.03;;
13872;SDS011;7006;51.494;11.964;2022-11-03T04:24:53;10.70;;;5.50;;
13872;SDS011;7006;51.494;11.964;2022-11-03T04:27:26;14.87;;;6.23;;
13872;SDS011;7006;51.494;11.964;2022-11-03T04:29:53;12.60;;;5.80;;
13872;SDS011;7006;51.494;11.964;2022-11-03T04:32:21;9.77;;;5.30;;
13872;SDS011;7006;51.494;11.964;2022-11-03T04:34:47;11.27;;;5.50;;
13872;SDS011;7006;51.494;11.964;2022-11-03T04:37:14;8.97;;;6.00;;
13872;SDS011;7006;51.494;11.964;2022-11-03T04:39:41;10.67;;;5.77;;
13872;SDS011;7006;51.494;11.964;2022-11-03T04:42:11;6.93;;;4.83;;
13872;SDS011;7006;51.494;11.964;2022-11-03T04:44:40;7.87;;;5.10;;
13872;SDS011;7006;51.494;11.964;2022-11-03T04:47:07;11.53;;;5.40;;
13872;SDS011;7006;51.494;11.964;2022-11-03T04:49:34;7.60;;;5.40;;
13872;SDS011;7006;51.494;11.964;2022-11-03T04:52:01;13.43;;;5.40;;
13872;SDS011;7006;51.494;11.964;2022-11-03T04:54:27;14.50;;;6.20;;
13872;SDS011;7006;51.494;11.964;2022-11-03T04:56:54;12.07;;;5.23;;
13872;SDS011;7006;51.494;11.964;2022-11-03T04:59:20;8.57;;;5.23;;
13872;SDS011;7006;51.494;11.964;2022-11-03T05:01:48;11.57;;;5.63;;
13872;SDS011;7006;51.494;11.964;2022-11-03T05:04:15;11.13;;;5.77;;
13872;SDS011;7006;51.494;11.964;2022-11-03T05:06:43;9.03;;;5.37;;
13872;SDS011;7006;51.494;11.964;2022-11-03T05:09:13;11.53;;;6.07;;
13872;SDS011;7006;51.494;11.964;2022-11-03T05:11:40;10.70;;;5.60;;
13872;SDS011;7006;51.494;11.964;2022-11-03T05:14:11;8.77;;;5.30;;
13872;SDS011;7006;51.494;11.964;2022-11-03T05:16:39;13.57;;;5.50;;
13872;SDS011;7006;51.494;11.964;2022-11-03T05:19:08;8.30;;;5.23;;
13872;SDS011;7006;51.494;11.964;2022-11-03T05:21:37;13.20;;;5.10;;
13872;SDS011;7006;51.494;11.964;2022-11-03T05:24:04;12.87;;;6.10;;
13872;SDS011;7006;51.494;11.964;2022-11-03T05:26:35;10.67;;;5.80;;
13872;SDS011;7006;51.494;11.964;2022-11-03T05:29:02;9.63;;;5.03;;
13872;SDS011;7006;51.494;11.964;2022-11-03T05:31:29;11.03;;;6.00;;
13872;SDS011;7006;51.494;11.964;2022-11-03T05:33:56;14.90;;;7.20;;
13872;SDS011;7006;51.494;11.964;2022-11-03T05:36:25;13.67;;;7.80;;
13872;SDS011;7006;51.494;11.964;2022-11-03T05:38:53;11.80;;;7.00;;
13872;SDS011;7006;51.494;11.964;2022-11-03T05:41:21;11.87;;;6.50;;
13872;SDS011;7006;51.494;11.964;2022-11-03T05:43:52;9.00;;;5.60;;
13872;SDS011;7006;51.494;11.964;2022-11-03T05:46:19;17.03;;;5.77;;
13872;SDS011;7006;51.494;11.964;2022-11-03T05:48:45;13.50;;;6.10;;
13872;SDS011;7006;51.494;11.964;2022-11-03T05:51:14;14.17;;;7.40;;
13872;SDS011;7006;51.494;11.964;2022-11-03T05:53:45;13.50;;;6.13;;
13872;SDS011;7006;51.494;11.964;2022-11-03T05:56:14;12.70;;;5.93;;
13872;SDS011;7006;51.494;11.964;2022-11-03T05:58:41;14.83;;;6.70;;
13872;SDS011;7006;51.494;11.964;2022-11-03T06:01:10;9.13;;;5.80;;
13872;SDS011;7006;51.494;11.964;2022-11-03T06:03:38;11.67;;;5.50;;
13872;SDS011;7006;51.494;11.964;2022-11-03T06:06:09;11.53;;;6.50;;
13872;SDS011;7006;51.494;11.964;2022-11-03T06:08:37;16.27;;;7.50;;
13872;SDS011;7006;51.494;11.964;2022-11-03T06:11:08;13.17;;;7.40;;
13872;SDS011;7006;51.494;11.964;2022-11-03T06:13:35;12.17;;;7.00;;
13872;SDS011;7006;51.494;11.964;2022-11-03T06:16:03;10.80;;;6.40;;
13872;SDS011;7006;51.494;11.964;2022-11-03T06:18:31;16.40;;;6.77;;
13872;SDS011;7006;51.494;11.964;2022-11-03T06:21:01;11.53;;;6.30;;
13872;SDS011;7006;51.494;11.964;2022-11-03T06:23:28;11.73;;;6.53;;
13872;SDS011;7006;51.494;11.964;2022-11-03T06:25:54;14.43;;;5.80;;
13872;SDS011;7006;51.494;11.964;2022-11-03T06:28:23;11.43;;;6.00;;
13872;SDS011;7006;51.494;11.964;2022-11-03T06:30:50;10.53;;;5.30;;
13872;SDS011;7006;51.494;11.964;2022-11-03T06:33:17;12.47;;;5.93;;
13872;SDS011;7006;51.494;11.964;2022-11-03T06:35:45;8.37;;;5.47;;
13872;SDS011;7006;51.494;11.964;2022-11-03T06:38:14;8.97;;;5.43;;
13872;SDS011;7006;51.494;11.964;2022-11-03T06:40:41;11.00;;;6.07;;
13872;SDS011;7006;51.494;11.964;2022-11-03T06:43:17;12.30;;;5.90;;
13872;SDS011;7006;51.494;11.964;2022-11-03T06:45:51;13.83;;;5.93;;
13872;SDS011;7006;51.494;11.964;2022-11-03T06:48:22;15.47;;;5.97;;
13872;SDS011;7006;51.494;11.964;2022-11-03T06:50:49;13.50;;;6.90;;
13872;SDS011;7006;51.494;11.964;2022-11-03T06:53:18;11.33;;;5.63;;
13872;SDS011;7006;51.494;11.964;2022-11-03T06:55:45;9.30;;;5.50;;
13872;SDS011;7006;51.494;11.964;2022-11-03T06:58:13;8.87;;;5.43;;
13872;SDS011;7006;51.494;11.964;2022-11-03T07:00:40;9.27;;;5.80;;
13872;SDS011;7006;51.494;11.964;2022-11-03T07:03:09;14.67;;;6.03;;
13872;SDS011;7006;51.494;11.964;2022-11-03T07:05:37;9.73;;;5.40;;
13872;SDS011;7006;51.494;11.964;2022-11-03T07:08:10;11.90;;;5.40;;
13872;SDS011;7006;51.494;11.964;2022-11-03T07:10:38;11.10;;;6.80;;
13872;SDS011;7006;51.494;11.964;2022-11-03T07:13:05;11.80;;;6.20;;
13872;SDS011;7006;51.494;11.964;2022-11-03T07:15:35;11.13;;;5.97;;
13872;SDS011;7006;51.494;11.964;2022-11-03T07:18:04;8.97;;;5.90;;
13872;SDS011;7006;51.494;11.964;2022-11-03T07:20:31;11.23;;;6.23;;
13872;SDS011;7006;51.494;11.964;2022-11-03T07:22:58;9.40;;;5.30;;
13872;SDS011;7006;51.494;11.964;2022-11-03T07:25:25;14.17;;;6.37;;
13872;SDS011;7006;51.494;11.964;2022-11-03T07:27:52;12.20;;;6.90;;
13872;SDS011;7006;51.494;11.964;2022-11-03T07:30:21;9.67;;;6.37;;
13872;SDS011;7006;51.494;11.964;2022-11-03T07:32:48;9.63;;;6.37;;
13872;SDS011;7006;51.494;11.964;2022-11-03T07:35:29;10.00;;;5.50;;
13872;SDS011;7006;51.494;11.964;2022-11-03T07:37:59;11.60;;;5.97;;
13872;SDS011;7006;51.494;11.964;2022-11-03T07:40:26;21.20;;;6.20;;
13872;SDS011;7006;51.494;11.964;2022-11-03T07:42:54;12.37;;;5.80;;
13872;SDS011;7006;51.494;11.964;2022-11-03T07:45:30;8.73;;;5.13;;
13872;SDS011;7006;51.494;11.964;2022-11-03T07:47:58;10.27;;;5.53;;
13872;SDS011;7006;51.494;11.964;2022-11-03T07:50:25;11.03;;;5.23;;
13872;SDS011;7006;51.494;11.964;2022-11-03T07:52:51;13.73;;;5.10;;
13872;SDS011;7006;51.494;11.964;2022-11-03T07:55:18;9.93;;;4.87;;
13872;SDS011;7006;51.494;11.964;2022-11-03T07:57:45;10.67;;;5.20;;
13872;SDS011;7006;51.494;11.964;2022-11-03T08:00:13;10.43;;;5.60;;
13872;SDS011;7006;51.494;11.964;2022-11-03T08:02:46;9.87;;;5.20;;
13872;SDS011;7006;51.494;11.964;2022-11-03T08:05:13;9.80;;;5.33;;
13872;SDS011;7006;51.494;11.964;2022-11-03T08:07:40;7.30;;;4.40;;
13872;SDS011;7006;51.494;11.964;2022-11-03T08:10:06;11.97;;;4.70;;
13872;SDS011;7006;51.494;11.964;2022-11-03T08:12:34;8.37;;;5.57;;
13872;SDS011;7006;51.494;11.964;2022-11-03T08:15:00;12.37;;;5.03;;
13872;SDS011;7006;51.494;11.964;2022-11-03T08:17:26;9.07;;;4.37;;
13872;SDS011;7006;51.494;11.964;2022-11-03T08:19:53;9.57;;;5.07;;
13872;SDS011;7006;51.494;11.964;2022-11-03T08:22:19;8.33;;;4.97;;
13872;SDS011;7006;51.494;11.964;2022-11-03T08:24:47;8.20;;;4.80;;
13872;SDS011;7006;51.494;11.964;2022-11-03T08:27:13;8.60;;;4.93;;
13872;SDS011;7006;51.494;11.964;2022-11-03T08:29:41;10.03;;;5.20;;
13872;SDS011;7006;51.494;11.964;2022-11-03T08:32:07;10.73;;;4.80;;
13872;SDS011;7006;51.494;11.964;2022-11-03T08:34:33;14.73;;;5.60;;
13872;SDS011;7006;51.494;11.964;2022-11-03T08:36:59;14.07;;;5.37;;
13872;SDS011;7006;51.494;11.964;2022-11-03T08:39:26;9.30;;;5.17;;
13872;SDS011;7006;51.494;11.964;2022-11-03T08:41:52;14.03;;;5.90;;
13872;SDS011;7006;51.494;11.964;2022-11-03T08:44:18;7.80;;;4.90;;
13872;SDS011;7006;51.494;11.964;2022-11-03T08:46:46;10.50;;;5.10;;
13872;SDS011;7006;51.494;11.964;2022-11-03T08:49:12;8.60;;;5.17;;
13872;SDS011;7006;51.494;11.964;2022-11-03T08:51:38;9.27;;;4.80;;
13872;SDS011;7006;51.494;11.964;2022-11-03T08:54:05;8.67;;;4.83;;
13872;SDS011;7006;51.494;11.964;2022-11-03T08:56:31;9.30;;;4.97;;
13872;SDS011;7006;51.494;11.964;2022-11-03T08:58:57;11.70;;;5.33;;
13872;SDS011;7006;51.494;11.964;2022-11-03T09:01:23;10.70;;;5.27;;
13872;SDS011;7006;51.494;11.964;2022-11-03T09:03:51;11.67;;;5.10;;
13872;SDS011;7006;51.494;11.964;2022-11-03T09:06:17;8.33;;;4.30;;
13872;SDS011;7006;51.494;11.964;2022-11-03T09:08:44;11.10;;;5.60;;
13872;SDS011;7006;51.494;11.964;2022-11-03T09:11:10;10.40;;;4.63;;
13872;SDS011;7006;51.494;11.964;2022-11-03T09:13:36;7.80;;;4.77;;
13872;SDS011;7006;51.494;11.964;2022-11-03T09:16:04;10.33;;;4.50;;
13872;SDS011;7006;51.494;11.964;2022-11-03T09:18:30;4.90;;;3.07;;
13872;SDS011;7006;51.494;11.964;2022-11-03T09:20:59;10.63;;;3.80;;
13872;SDS011;7006;51.494;11.964;2022-11-03T09:23:25;6.60;;;3.77;;
13872;SDS011;7006;51.494;11.964;2022-11-03T09:25:51;7.00;;;3.80;;
13872;SDS011;7006;51.494;11.964;2022-11-03T09:28:18;9.37;;;3.13;;
13872;SDS011;7006;51.494;11.964;2022-11-03T09:30:44;8.03;;;3.27;;
13872;SDS011;7006;51.494;11.964;2022-11-03T09:33:10;6.60;;;3.53;;
13872;SDS011;7006;51.494;11.964;2022-11-03T09:35:37;4.20;;;2.77;;
13872;SDS011;7006;51.494;11.964;2022-11-03T09:38:04;7.40;;;3.30;;
13872;SDS011;7006;51.494;11.964;2022-11-03T09:40:31;5.23;;;2.73;;
13872;SDS011;7006;51.494;11.964;2022-11-03T09:42:58;7.00;;;3.40;;
13872;SDS011;7006;51.494;11.964;2022-11-03T09:45:24;7.20;;;2.87;;
13872;SDS011;7006;51.494;11.964;2022-11-03T09:47:51;6.27;;;3.20;;
13872;SDS011;7006;51.494;11.964;2022-11-03T09:50:17;6.70;;;3.43;;
13872;SDS011;7006;51.494;11.964;2022-11-03T09:52:44;6.03;;;3.27;;
13872;SDS011;7006;51.494;11.964;2022-11-03T09:55:13;5.10;;;3.17;;
13872;SDS011;7006;51.494;11.964;2022-11-03T09:57:40;8.83;;;3.70;;
13872;SDS011;7006;51.494;11.964;2022-11-03T10:00:12;14.67;;;3.10;;
13872;SDS011;7006;51.494;11.964;2022-11-03T10:02:38;7.23;;;3.50;;
13872;SDS011;7006;51.494;11.964;2022-11-03T10:05:07;10.23;;;3.80;;
13872;SDS011;7006;51.494;11.964;2022-11-03T10:07:37;16.33;;;3.53;;
13872;SDS011;7006;51.494;11.964;2022-11-03T10:10:04;10.00;;;4.63;;
13872;SDS011;7006;51.494;11.964;2022-11-03T10:12:34;11.07;;;4.10;;
13872;SDS011;7006;51.494;11.964;2022-11-03T10:15:01;6.67;;;3.63;;
13872;SDS011;7006;51.494;11.964;2022-11-03T10:17:28;6.80;;;3.47;;
13872;SDS011;7006;51.494;11.964;2022-11-03T10:19:55;5.70;;;3.23;;
13872;SDS011;7006;51.494;11.964;2022-11-03T10:22:23;10.10;;;4.47;;
13872;SDS011;7006;51.494;11.964;2022-11-03T10:24:49;9.43;;;3.50;;
13872;SDS011;7006;51.494;11.964;2022-11-03T10:27:37;10.60;;;3.77;;
13872;SDS011;7006;51.494;11.964;2022-11-03T10:30:04;8.43;;;3.80;;
13872;SDS011;7006;51.494;11.964;2022-11-03T10:32:32;8.17;;;4.07;;
13872;SDS011;7006;51.494;11.964;2022-11-03T10:34:59;8.20;;;3.80;;
13872;SDS011;7006;51.494;11.964;2022-11-03T10:37:26;10.33;;;3.90;;
13872;SDS011;7006;51.494;11.964;2022-11-03T10:39:54;8.20;;;3.83;;
13872;SDS011;7006;51.494;11.964;2022-11-03T10:42:21;10.30;;;4.27;;
13872;SDS011;7006;51.494;11.964;2022-11-03T10:44:50;5.67;;;3.90;;
13872;SDS011;7006;51.494;11.964;2022-11-03T10:47:24;7.63;;;3.60;;
13872;SDS011;7006;51.494;11.964;2022-11-03T10:49:50;7.93;;;3.70;;
13872;SDS011;7006;51.494;11.964;2022-11-03T10:52:19;9.77;;;3.87;;
13872;SDS011;7006;51.494;11.964;2022-11-03T10:54:46;8.70;;;3.60;;
13872;SDS011;7006;51.494;11.964;2022-11-03T10:57:13;8.20;;;3.67;;
13872;SDS011;7006;51.494;11.964;2022-11-03T10:59:39;6.93;;;3.63;;
13872;SDS011;7006;51.494;11.964;2022-11-03T11:02:12;8.40;;;4.40;;
13872;SDS011;7006;51.494;11.964;2022-11-03T11:04:39;6.50;;;3.40;;
13872;SDS011;7006;51.494;11.964;2022-11-03T11:07:11;7.00;;;3.63;;
13872;SDS011;7006;51.494;11.964;2022-11-03T11:09:40;10.27;;;3.90;;
13872;SDS011;7006;51.494;11.964;2022-11-03T11:12:13;7.43;;;3.37;;
13872;SDS011;7006;51.494;11.964;2022-11-03T11:14:49;7.50;;;3.90;;
13872;SDS011;7006;51.494;11.964;2022-11-03T11:20:25;7.03;;;3.47;;
13872;SDS011;7006;51.494;11.964;2022-11-03T11:22:53;6.40;;;3.13;;
13872;SDS011;7006;51.494;11.964;2022-11-03T11:25:20;6.00;;;3.37;;
13872;SDS011;7006;51.494;11.964;2022-11-03T11:27:55;5.37;;;2.93;;
13872;SDS011;7006;51.494;11.964;2022-11-03T11:33:13;5.90;;;3.13;;
13872;SDS011;7006;51.494;11.964;2022-11-03T11:46:51;4.73;;;2.77;;
13872;SDS011;7006;51.494;11.964;2022-11-03T11:49:20;5.00;;;2.97;;
13872;SDS011;7006;51.494;11.964;2022-11-03T11:51:46;6.07;;;3.40;;
13872;SDS011;7006;51.494;11.964;2022-11-03T11:54:14;6.70;;;2.70;;
13872;SDS011;7006;51.494;11.964;2022-11-03T11:56:42;7.27;;;3.03;;
13872;SDS011;7006;51.494;11.964;2022-11-03T11:59:12;7.57;;;3.20;;
13872;SDS011;7006;51.494;11.964;2022-11-03T12:01:40;7.03;;;3.47;;
13872;SDS011;7006;51.494;11.964;2022-11-03T12:04:14;5.80;;;3.73;;
13872;SDS011;7006;51.494;11.964;2022-11-03T12:06:42;8.13;;;3.53;;
13872;SDS011;7006;51.494;11.964;2022-11-03T12:09:14;6.80;;;2.93;;
13872;SDS011;7006;51.494;11.964;2022-11-03T12:11:41;7.80;;;2.87;;
13872;SDS011;7006;51.494;11.964;2022-11-03T12:14:20;5.33;;;3.13;;
13872;SDS011;7006;51.494;11.964;2022-11-03T12:16:46;4.77;;;2.80;;
13872;SDS011;7006;51.494;11.964;2022-11-03T12:19:35;5.17;;;2.67;;
13872;SDS011;7006;51.494;11.964;2022-11-03T12:22:02;9.60;;;2.93;;
13872;SDS011;7006;51.494;11.964;2022-11-03T12:24:33;6.47;;;3.20;;
13872;SDS011;7006;51.494;11.964;2022-11-03T12:27:01;5.97;;;3.13;;
13872;SDS011;7006;51.494;11.964;2022-11-03T12:29:27;9.20;;;3.00;;
13872;SDS011;7006;51.494;11.964;2022-11-03T12:31:54;8.40;;;2.90;;
13872;SDS011;7006;51.494;11.964;2022-11-03T12:34:20;6.10;;;3.10;;
13872;SDS011;7006;51.494;11.964;2022-11-03T12:36:47;11.90;;;7.47;;
13872;SDS011;7006;51.494;11.964;2022-11-03T12:39:14;8.80;;;3.40;;
13872;SDS011;7006;51.494;11.964;2022-11-03T12:41:40;8.23;;;3.30;;
13872;SDS011;7006;51.494;11.964;2022-11-03T12:44:06;5.00;;;2.57;;
13872;SDS011;7006;51.494;11.964;2022-11-03T12:46:33;5.33;;;2.70;;
13872;SDS011;7006;51.494;11.964;2022-11-03T12:48:59;4.27;;;2.87;;
13872;SDS011;7006;51.494;11.964;2022-11-03T12:51:25;8.60;;;2.90;;
13872;SDS011;7006;51.494;11.964;2022-11-03T12:53:53;5.57;;;2.80;;
13872;SDS011;7006;51.494;11.964;2022-11-03T12:56:19;8.03;;;3.20;;
13872;SDS011;7006;51.494;11.964;2022-11-03T12:58:45;7.40;;;3.20;;
13872;SDS011;7006;51.494;11.964;2022-11-03T13:01:12;5.77;;;2.70;;
13872;SDS011;7006;51.494;11.964;2022-11-03T13:03:38;6.23;;;3.00;;
13872;SDS011;7006;51.494;11.964;2022-11-03T13:06:04;9.73;;;3.13;;
13872;SDS011;7006;51.494;11.964;2022-11-03T13:08:34;5.37;;;2.73;;
13872;SDS011;7006;51.494;11.964;2022-11-03T13:11:01;11.07;;;3.53;;
13872;SDS011;7006;51.494;11.964;2022-11-03T13:13:28;7.37;;;2.73;;
13872;SDS011;7006;51.494;11.964;2022-11-03T13:15:54;6.03;;;2.93;;
13872;SDS011;7006;51.494;11.964;2022-11-03T13:18:21;5.27;;;2.50;;
13872;SDS011;7006;51.494;11.964;2022-11-03T13:20:47;6.83;;;2.47;;
13872;SDS011;7006;51.494;11.964;2022-11-03T13:23:13;6.87;;;2.70;;
13872;SDS011;7006;51.494;11.964;2022-11-03T13:25:39;7.70;;;2.70;;
13872;SDS011;7006;51.494;11.964;2022-11-03T13:28:08;3.90;;;2.50;;
13872;SDS011;7006;51.494;11.964;2022-11-03T13:30:34;5.40;;;2.30;;
13872;SDS011;7006;51.494;11.964;2022-11-03T13:33:00;4.50;;;2.33;;
13872;SDS011;7006;51.494;11.964;2022-11-03T13:35:27;9.63;;;3.10;;
13872;SDS011;7006;51.494;11.964;2022-11-03T13:37:53;7.57;;;2.47;;
13872;SDS011;7006;51.494;11.964;2022-11-03T13:40:19;9.00;;;2.70;;
13872;SDS011;7006;51.494;11.964;2022-11-03T13:42:45;8.03;;;3.00;;
13872;SDS011;7006;51.494;11.964;2022-11-03T13:45:13;3.83;;;1.83;;
13872;SDS011;7006;51.494;11.964;2022-11-03T13:47:39;9.23;;;2.80;;
13872;SDS011;7006;51.494;11.964;2022-11-03T13:50:06;5.47;;;2.50;;
13872;SDS011;7006;51.494;11.964;2022-11-03T13:52:32;6.03;;;2.43;;
13872;SDS011;7006;51.494;11.964;2022-11-03T13:54:59;8.30;;;2.60;;
13872;SDS011;7006;51.494;11.964;2022-11-03T13:57:25;4.50;;;2.60;;
13872;SDS011;7006;51.494;11.964;2022-11-03T13:59:52;6.30;;;2.70;;
13872;SDS011;7006;51.494;11.964;2022-11-03T14:02:19;5.60;;;3.00;;
13872;SDS011;7006;51.494;11.964;2022-11-03T14:04:46;5.97;;;2.67;;
13872;SDS011;7006;51.494;11.964;2022-11-03T14:07:12;4.73;;;2.80;;
13872;SDS011;7006;51.494;11.964;2022-11-03T14:09:38;6.03;;;3.13;;
13872;SDS011;7006;51.494;11.964;2022-11-03T14:12:05;6.03;;;3.30;;
13872;SDS011;7006;51.494;11.964;2022-11-03T14:14:49;7.20;;;3.03;;
13872;SDS011;7006;51.494;11.964;2022-11-03T14:17:15;7.90;;;3.20;;
13872;SDS011;7006;51.494;11.964;2022-11-03T14:19:42;7.53;;;2.77;;
13872;SDS011;7006;51.494;11.964;2022-11-03T14:22:09;7.33;;;3.50;;
13872;SDS011;7006;51.494;11.964;2022-11-03T14:24:35;9.10;;;2.90;;
13872;SDS011;7006;51.494;11.964;2022-11-03T14:27:01;5.27;;;3.10;;
13872;SDS011;7006;51.494;11.964;2022-11-03T14:29:27;8.03;;;2.30;;
13872;SDS011;7006;51.494;11.964;2022-11-03T14:31:54;7.00;;;2.83;;
13872;SDS011;7006;51.494;11.964;2022-11-03T14:34:20;4.90;;;3.00;;
13872;SDS011;7006;51.494;11.964;2022-11-03T14:36:48;6.13;;;2.80;;
13872;SDS011;7006;51.494;11.964;2022-11-03T14:39:14;6.57;;;3.10;;
13872;SDS011;7006;51.494;11.964;2022-11-03T14:41:40;10.83;;;3.30;;
13872;SDS011;7006;51.494;11.964;2022-11-03T14:44:24;6.07;;;3.00;;
13872;SDS011;7006;51.494;11.964;2022-11-03T14:46:50;5.83;;;2.97;;
13872;SDS011;7006;51.494;11.964;2022-11-03T14:49:17;5.23;;;2.73;;
13872;SDS011;7006;51.494;11.964;2022-11-03T14:51:43;10.50;;;3.80;;
13872;SDS011;7006;51.494;11.964;2022-11-03T14:54:11;9.13;;;2.90;;
13872;SDS011;7006;51.494;11.964;2022-11-03T14:56:37;4.87;;;3.20;;
13872;SDS011;7006;51.494;11.964;2022-11-03T14:59:03;9.47;;;3.50;;
13872;SDS011;7006;51.494;11.964;2022-11-03T15:01:29;5.80;;;3.00;;
13872;SDS011;7006;51.494;11.964;2022-11-03T15:03:56;6.93;;;3.30;;